sensor_id;sensor_type;location;lat;lon;timestamp;pressure;altitude;pressure_sealevel;temperature;humidity
54872;BME280;43914;57.680;11.982;2023-05-23T00:01:44;100714.95;;;15.70;53.10
54872;BME280;43914;57.680;11.982;2023-05-23T00:04:10;100712.58;;;15.70;53.18
54872;BME280;43914;57.680;11.982;2023-05-23T00:06:42;100711.25;;;15.70;53.11
54872;BME280;43914;57.680;11.982;2023-05-23T00:09:14;100708.77;;;15.69;53.21
54872;BME280;43914;57.680;11.982;2023-05-23T00:11:40;100704.21;;;15.69;53.26
54872;BME280;43914;57.680;11.982;2023-05-23T00:14:13;100707.67;;;15.69;53.17
54872;BME280;43914;57.680;11.982;2023-05-23T00:16:40;100701.34;;;15.68;53.23
54872;BME280;43914;57.680;11.982;2023-05-23T00:19:07;100701.96;;;15.69;53.23
54872;BME280;43914;57.680;11.982;2023-05-23T00:21:34;100701.20;;;15.69;53.36
54872;BME280;43914;57.680;11.982;2023-05-23T00:23:59;100699.30;;;15.68;53.23
54872;BME280;43914;57.680;11.982;2023-05-23T00:26:27;100696.86;;;15.67;53.28
54872;BME280;43914;57.680;11.982;2023-05-23T00:28:54;100696.34;;;15.64;53.35
54872;BME280;43914;57.680;11.982;2023-05-23T00:31:21;100700.60;;;15.62;53.23
54872;BME280;43914;57.680;11.982;2023-05-23T00:33:46;100696.88;;;15.63;53.36
54872;BME280;43914;57.680;11.982;2023-05-23T00:36:12;100700.67;;;15.63;53.24
54872;BME280;43914;57.680;11.982;2023-05-23T00:38:37;100695.60;;;15.63;53.31
54872;BME280;43914;57.680;11.982;2023-05-23T00:41:04;100695.10;;;15.63;53.16
54872;BME280;43914;57.680;11.982;2023-05-23T00:43:30;100690.90;;;15.61;53.15
54872;BME280;43914;57.680;11.982;2023-05-23T00:45:56;100687.23;;;15.60;53.09
54872;BME280;43914;57.680;11.982;2023-05-23T00:48:24;100680.98;;;15.59;53.00
54872;BME280;43914;57.680;11.982;2023-05-23T00:50:49;100677.75;;;15.57;52.79
54872;BME280;43914;57.680;11.982;2023-05-23T00:53:15;100675.21;;;15.57;52.79
54872;BME280;43914;57.680;11.982;2023-05-23T00:55:42;100674.45;;;15.56;52.68
54872;BME280;43914;57.680;11.982;2023-05-23T00:58:08;100669.55;;;15.54;52.55
54872;BME280;43914;57.680;11.982;2023-05-23T01:00:35;100668.45;;;15.53;52.61
54872;BME280;43914;57.680;11.982;2023-05-23T01:03:02;100666.71;;;15.51;52.54
54872;BME280;43914;57.680;11.982;2023-05-23T01:05:29;100665.23;;;15.49;52.46
54872;BME280;43914;57.680;11.982;2023-05-23T01:07:54;100665.75;;;15.45;52.08
54872;BME280;43914;57.680;11.982;2023-05-23T01:10:22;100664.85;;;15.42;51.63
54872;BME280;43914;57.680;11.982;2023-05-23T01:15:40;100661.88;;;15.38;51.09
54872;BME280;43914;57.680;11.982;2023-05-23T01:18:16;100659.52;;;15.36;50.87
54872;BME280;43914;57.680;11.982;2023-05-23T01:21:16;100663.99;;;15.35;50.72
54872;BME280;43914;57.680;11.982;2023-05-23T01:29:12;100664.62;;;15.26;50.89
54872;BME280;43914;57.680;11.982;2023-05-23T01:31:42;100664.42;;;15.24;50.80
54872;BME280;43914;57.680;11.982;2023-05-23T01:34:15;100660.21;;;15.24;50.60
54872;BME280;43914;57.680;11.982;2023-05-23T01:36:43;100658.74;;;15.24;50.52
54872;BME280;43914;57.680;11.982;2023-05-23T01:39:09;100655.40;;;15.22;50.77
54872;BME280;43914;57.680;11.982;2023-05-23T01:41:35;100656.52;;;15.21;50.91
54872;BME280;43914;57.680;11.982;2023-05-23T01:44:02;100655.36;;;15.20;50.83
54872;BME280;43914;57.680;11.982;2023-05-23T01:46:28;100651.42;;;15.19;50.89
54872;BME280;43914;57.680;11.982;2023-05-23T01:48:54;100648.02;;;15.19;50.90
54872;BME280;43914;57.680;11.982;2023-05-23T01:51:22;100646.15;;;15.16;50.88
54872;BME280;43914;57.680;11.982;2023-05-23T01:53:49;100643.11;;;15.15;50.96
54872;BME280;43914;57.680;11.982;2023-05-23T01:56:15;100640.54;;;15.13;51.07
54872;BME280;43914;57.680;11.982;2023-05-23T01:58:41;100640.26;;;15.09;51.31
54872;BME280;43914;57.680;11.982;2023-05-23T02:01:08;100633.95;;;15.06;51.40
54872;BME280;43914;57.680;11.982;2023-05-23T02:03:34;100631.85;;;15.02;51.57
54872;BME280;43914;57.680;11.982;2023-05-23T02:06:00;100626.39;;;14.97;51.64
54872;BME280;43914;57.680;11.982;2023-05-23T02:08:25;100627.52;;;14.95;51.79
54872;BME280;43914;57.680;11.982;2023-05-23T02:10:51;100624.49;;;14.91;51.99
54872;BME280;43914;57.680;11.982;2023-05-23T02:13:16;100621.58;;;14.85;52.15
54872;BME280;43914;57.680;11.982;2023-05-23T02:15:41;100620.71;;;14.83;52.14
54872;BME280;43914;57.680;11.982;2023-05-23T02:18:07;100614.31;;;14.79;52.50
54872;BME280;43914;57.680;11.982;2023-05-23T02:20:32;100612.21;;;14.76;52.59
54872;BME280;43914;57.680;11.982;2023-05-23T02:22:58;100609.73;;;14.74;52.78
54872;BME280;43914;57.680;11.982;2023-05-23T02:25:23;100606.07;;;14.71;53.04
54872;BME280;43914;57.680;11.982;2023-05-23T02:27:49;100603.56;;;14.68;53.24
54872;BME280;43914;57.680;11.982;2023-05-23T02:30:15;100598.83;;;14.66;53.34
54872;BME280;43914;57.680;11.982;2023-05-23T02:32:40;100592.21;;;14.64;53.59
54872;BME280;43914;57.680;11.982;2023-05-23T02:35:06;100585.70;;;14.62;53.78
54872;BME280;43914;57.680;11.982;2023-05-23T02:37:31;100583.04;;;14.62;54.00
54872;BME280;43914;57.680;11.982;2023-05-23T02:39:57;100577.42;;;14.60;54.00
54872;BME280;43914;57.680;11.982;2023-05-23T02:42:22;100571.77;;;14.58;54.38
54872;BME280;43914;57.680;11.982;2023-05-23T02:44:48;100571.73;;;14.57;54.62
54872;BME280;43914;57.680;11.982;2023-05-23T02:47:13;100566.42;;;14.55;54.82
54872;BME280;43914;57.680;11.982;2023-05-23T02:49:38;100559.53;;;14.53;55.12
54872;BME280;43914;57.680;11.982;2023-05-23T02:52:05;100555.70;;;14.52;55.38
54872;BME280;43914;57.680;11.982;2023-05-23T02:54:30;100551.67;;;14.51;55.52
54872;BME280;43914;57.680;11.982;2023-05-23T02:56:56;100552.25;;;14.50;55.75
54872;BME280;43914;57.680;11.982;2023-05-23T02:59:22;100549.09;;;14.49;55.96
54872;BME280;43914;57.680;11.982;2023-05-23T03:01:48;100548.92;;;14.49;55.98
54872;BME280;43914;57.680;11.982;2023-05-23T03:04:13;100541.98;;;14.48;56.02
54872;BME280;43914;57.680;11.982;2023-05-23T03:06:39;100537.33;;;14.48;56.10
54872;BME280;43914;57.680;11.982;2023-05-23T03:09:07;100535.03;;;14.49;56.09
54872;BME280;43914;57.680;11.982;2023-05-23T03:11:33;100534.45;;;14.49;56.21
54872;BME280;43914;57.680;11.982;2023-05-23T03:13:58;100531.41;;;14.49;56.34
54872;BME280;43914;57.680;11.982;2023-05-23T03:16:24;100534.52;;;14.49;56.15
54872;BME280;43914;57.680;11.982;2023-05-23T03:18:49;100529.95;;;14.48;56.31
54872;BME280;43914;57.680;11.982;2023-05-23T03:21:14;100531.21;;;14.48;56.46
54872;BME280;43914;57.680;11.982;2023-05-23T03:23:40;100530.27;;;14.47;56.61
54872;BME280;43914;57.680;11.982;2023-05-23T03:26:06;100524.36;;;14.45;56.45
54872;BME280;43914;57.680;11.982;2023-05-23T03:28:31;100525.73;;;14.45;56.59
54872;BME280;43914;57.680;11.982;2023-05-23T03:30:58;100521.00;;;14.43;56.62
54872;BME280;43914;57.680;11.982;2023-05-23T03:33:23;100520.44;;;14.41;56.69
54872;BME280;43914;57.680;11.982;2023-05-23T03:35:49;100518.83;;;14.38;56.73
54872;BME280;43914;57.680;11.982;2023-05-23T03:38:15;100514.92;;;14.36;56.84
54872;BME280;43914;57.680;11.982;2023-05-23T03:40:41;100513.68;;;14.36;56.80
54872;BME280;43914;57.680;11.982;2023-05-23T03:43:07;100508.06;;;14.34;56.69
54872;BME280;43914;57.680;11.982;2023-05-23T03:45:33;100508.61;;;14.33;56.71
54872;BME280;43914;57.680;11.982;2023-05-23T03:47:59;100507.79;;;14.31;57.02
54872;BME280;43914;57.680;11.982;2023-05-23T03:50:25;100503.52;;;14.29;57.02
54872;BME280;43914;57.680;11.982;2023-05-23T03:52:51;100502.14;;;14.30;57.00
54872;BME280;43914;57.680;11.982;2023-05-23T03:55:16;100498.83;;;14.29;56.97
54872;BME280;43914;57.680;11.982;2023-05-23T03:57:49;100497.58;;;14.28;56.98
54872;BME280;43914;57.680;11.982;2023-05-23T04:00:16;100493.05;;;14.28;57.05
54872;BME280;43914;57.680;11.982;2023-05-23T04:02:43;100491.48;;;14.28;57.00
54872;BME280;43914;57.680;11.982;2023-05-23T04:05:10;100490.22;;;14.27;57.12
54872;BME280;43914;57.680;11.982;2023-05-23T04:07:36;100480.11;;;14.29;57.02
54872;BME280;43914;57.680;11.982;2023-05-23T04:10:03;100479.69;;;14.31;56.98
54872;BME280;43914;57.680;11.982;2023-05-23T04:12:29;100474.38;;;14.33;57.06
54872;BME280;43914;57.680;11.982;2023-05-23T04:14:55;100478.33;;;14.34;57.07
54872;BME280;43914;57.680;11.982;2023-05-23T04:17:20;100475.12;;;14.36;57.07
54872;BME280;43914;57.680;11.982;2023-05-23T04:19:47;100471.23;;;14.38;56.75
54872;BME280;43914;57.680;11.982;2023-05-23T04:22:12;100471.31;;;14.39;56.87
54872;BME280;43914;57.680;11.982;2023-05-23T04:24:37;100473.87;;;14.42;57.17
54872;BME280;43914;57.680;11.982;2023-05-23T04:27:03;100467.92;;;14.44;57.59
54872;BME280;43914;57.680;11.982;2023-05-23T04:29:28;100466.15;;;14.47;58.00
54872;BME280;43914;57.680;11.982;2023-05-23T04:31:56;100467.26;;;14.51;58.49
54872;BME280;43914;57.680;11.982;2023-05-23T04:34:22;100462.04;;;14.54;58.51
54872;BME280;43914;57.680;11.982;2023-05-23T04:36:48;100456.38;;;14.54;57.87
54872;BME280;43914;57.680;11.982;2023-05-23T04:39:15;100450.66;;;14.56;57.32
54872;BME280;43914;57.680;11.982;2023-05-23T04:41:41;100451.18;;;14.61;58.15
54872;BME280;43914;57.680;11.982;2023-05-23T04:44:10;100449.58;;;14.63;57.73
54872;BME280;43914;57.680;11.982;2023-05-23T04:46:36;100448.73;;;14.65;56.70
54872;BME280;43914;57.680;11.982;2023-05-23T04:49:02;100447.55;;;14.68;57.34
54872;BME280;43914;57.680;11.982;2023-05-23T04:51:28;100448.56;;;14.76;57.97
54872;BME280;43914;57.680;11.982;2023-05-23T04:53:54;100443.10;;;14.77;57.01
54872;BME280;43914;57.680;11.982;2023-05-23T04:56:20;100431.17;;;14.80;56.64
54872;BME280;43914;57.680;11.982;2023-05-23T04:58:46;100428.41;;;14.83;56.34
54872;BME280;43914;57.680;11.982;2023-05-23T05:01:12;100425.14;;;14.85;56.33
54872;BME280;43914;57.680;11.982;2023-05-23T05:03:38;100422.79;;;14.88;56.49
54872;BME280;43914;57.680;11.982;2023-05-23T05:06:04;100429.09;;;14.92;56.85
54872;BME280;43914;57.680;11.982;2023-05-23T05:08:31;100429.20;;;14.97;56.83
54872;BME280;43914;57.680;11.982;2023-05-23T05:10:57;100419.32;;;15.00;56.69
54872;BME280;43914;57.680;11.982;2023-05-23T05:13:23;100415.39;;;15.01;56.54
54872;BME280;43914;57.680;11.982;2023-05-23T05:15:48;100420.30;;;15.02;55.79
54872;BME280;43914;57.680;11.982;2023-05-23T05:18:14;100421.81;;;15.05;55.60
54872;BME280;43914;57.680;11.982;2023-05-23T05:20:40;100424.13;;;15.10;55.24
54872;BME280;43914;57.680;11.982;2023-05-23T05:23:06;100418.61;;;15.15;54.92
54872;BME280;43914;57.680;11.982;2023-05-23T05:25:34;100417.28;;;15.18;55.16
54872;BME280;43914;57.680;11.982;2023-05-23T05:28:01;100414.55;;;15.17;55.20
54872;BME280;43914;57.680;11.982;2023-05-23T05:30:33;100418.17;;;15.20;55.52
54872;BME280;43914;57.680;11.982;2023-05-23T05:33:00;100422.40;;;15.22;55.79
54872;BME280;43914;57.680;11.982;2023-05-23T05:35:30;100427.61;;;15.23;55.80
54872;BME280;43914;57.680;11.982;2023-05-23T05:37:57;100429.27;;;15.20;55.24
54872;BME280;43914;57.680;11.982;2023-05-23T05:40:23;100432.02;;;15.20;54.80
54872;BME280;43914;57.680;11.982;2023-05-23T05:42:48;100429.00;;;15.21;55.23
54872;BME280;43914;57.680;11.982;2023-05-23T05:45:14;100422.81;;;15.18;54.92
54872;BME280;43914;57.680;11.982;2023-05-23T05:47:39;100420.05;;;15.16;54.91
54872;BME280;43914;57.680;11.982;2023-05-23T05:50:06;100429.73;;;15.15;54.58
54872;BME280;43914;57.680;11.982;2023-05-23T05:52:33;100422.31;;;15.14;54.41
54872;BME280;43914;57.680;11.982;2023-05-23T05:55:09;100412.92;;;15.10;54.90
54872;BME280;43914;57.680;11.982;2023-05-23T05:57:38;100414.28;;;15.09;56.06
54872;BME280;43914;57.680;11.982;2023-05-23T06:00:06;100416.27;;;15.10;56.18
54872;BME280;43914;57.680;11.982;2023-05-23T06:02:43;100412.35;;;15.11;56.06
54872;BME280;43914;57.680;11.982;2023-05-23T06:05:11;100408.70;;;15.13;55.40
54872;BME280;43914;57.680;11.982;2023-05-23T06:07:38;100421.75;;;15.12;55.42
54872;BME280;43914;57.680;11.982;2023-05-23T06:10:05;100409.27;;;15.09;54.91
54872;BME280;43914;57.680;11.982;2023-05-23T06:12:31;100408.73;;;15.06;54.86
54872;BME280;43914;57.680;11.982;2023-05-23T06:14:57;100420.30;;;15.03;55.15
54872;BME280;43914;57.680;11.982;2023-05-23T06:17:22;100405.02;;;15.02;55.13
54872;BME280;43914;57.680;11.982;2023-05-23T06:19:48;100401.30;;;14.98;54.75
54872;BME280;43914;57.680;11.982;2023-05-23T06:22:13;100408.62;;;14.95;55.00
54872;BME280;43914;57.680;11.982;2023-05-23T06:24:39;100409.48;;;14.96;55.35
54872;BME280;43914;57.680;11.982;2023-05-23T06:27:04;100401.60;;;14.98;55.62
54872;BME280;43914;57.680;11.982;2023-05-23T06:29:30;100393.69;;;14.99;56.31
54872;BME280;43914;57.680;11.982;2023-05-23T06:31:56;100396.30;;;14.99;56.28
54872;BME280;43914;57.680;11.982;2023-05-23T06:34:21;100403.50;;;14.99;56.02
54872;BME280;43914;57.680;11.982;2023-05-23T06:36:47;100386.77;;;15.03;54.63
54872;BME280;43914;57.680;11.982;2023-05-23T06:39:13;100377.61;;;15.06;54.09
54872;BME280;43914;57.680;11.982;2023-05-23T06:41:39;100390.88;;;15.12;53.97
54872;BME280;43914;57.680;11.982;2023-05-23T06:44:04;100385.23;;;15.17;54.16
54872;BME280;43914;57.680;11.982;2023-05-23T06:46:30;100369.14;;;15.21;54.00
54872;BME280;43914;57.680;11.982;2023-05-23T06:48:55;100376.55;;;15.25;53.49
54872;BME280;43914;57.680;11.982;2023-05-23T06:51:21;100380.23;;;15.30;53.55
54872;BME280;43914;57.680;11.982;2023-05-23T06:53:47;100352.80;;;15.31;52.88
54872;BME280;43914;57.680;11.982;2023-05-23T06:56:12;100346.96;;;15.31;51.58
54872;BME280;43914;57.680;11.982;2023-05-23T06:58:38;100371.67;;;15.31;51.65
54872;BME280;43914;57.680;11.982;2023-05-23T07:01:03;100395.26;;;15.33;51.62
54872;BME280;43914;57.680;11.982;2023-05-23T07:03:29;100395.13;;;15.34;51.73
54872;BME280;43914;57.680;11.982;2023-05-23T07:05:55;100390.13;;;15.34;51.96
54872;BME280;43914;57.680;11.982;2023-05-23T07:08:20;100393.30;;;15.34;52.37
54872;BME280;43914;57.680;11.982;2023-05-23T07:10:46;100403.27;;;15.36;52.63
54872;BME280;43914;57.680;11.982;2023-05-23T07:13:11;100402.86;;;15.39;52.42
54872;BME280;43914;57.680;11.982;2023-05-23T07:15:37;100400.20;;;15.41;52.53
54872;BME280;43914;57.680;11.982;2023-05-23T07:18:03;100404.90;;;15.42;52.69
54872;BME280;43914;57.680;11.982;2023-05-23T07:20:29;100392.55;;;15.44;52.68
54872;BME280;43914;57.680;11.982;2023-05-23T07:22:54;100384.98;;;15.44;53.91
54872;BME280;43914;57.680;11.982;2023-05-23T07:25:21;100381.19;;;15.43;54.56
54872;BME280;43914;57.680;11.982;2023-05-23T07:27:47;100389.31;;;15.43;53.62
54872;BME280;43914;57.680;11.982;2023-05-23T07:30:13;100385.14;;;15.48;53.37
54872;BME280;43914;57.680;11.982;2023-05-23T07:32:38;100387.75;;;15.53;53.77
54872;BME280;43914;57.680;11.982;2023-05-23T07:35:04;100393.59;;;15.63;54.22
54872;BME280;43914;57.680;11.982;2023-05-23T07:37:29;100376.72;;;15.70;53.31
54872;BME280;43914;57.680;11.982;2023-05-23T07:39:55;100366.80;;;15.76;52.99
54872;BME280;43914;57.680;11.982;2023-05-23T07:42:20;100375.66;;;15.81;53.02
54872;BME280;43914;57.680;11.982;2023-05-23T07:44:46;100388.87;;;15.89;53.12
54872;BME280;43914;57.680;11.982;2023-05-23T07:47:11;100388.87;;;15.97;52.93
54872;BME280;43914;57.680;11.982;2023-05-23T07:49:37;100397.15;;;16.04;52.94
54872;BME280;43914;57.680;11.982;2023-05-23T07:52:02;100409.30;;;16.12;52.57
54872;BME280;43914;57.680;11.982;2023-05-23T07:54:28;100418.08;;;16.21;51.96
54872;BME280;43914;57.680;11.982;2023-05-23T07:56:53;100413.15;;;16.27;51.69
54872;BME280;43914;57.680;11.982;2023-05-23T07:59:19;100403.89;;;16.29;51.84
54872;BME280;43914;57.680;11.982;2023-05-23T08:01:44;100404.52;;;16.33;52.10
54872;BME280;43914;57.680;11.982;2023-05-23T08:04:10;100405.20;;;16.38;52.08
54872;BME280;43914;57.680;11.982;2023-05-23T08:06:35;100409.45;;;16.43;51.25
54872;BME280;43914;57.680;11.982;2023-05-23T08:09:02;100403.38;;;16.48;50.66
54872;BME280;43914;57.680;11.982;2023-05-23T08:11:29;100400.88;;;16.50;50.44
54872;BME280;43914;57.680;11.982;2023-05-23T08:13:55;100405.61;;;16.52;50.39
54872;BME280;43914;57.680;11.982;2023-05-23T08:16:21;100409.67;;;16.53;50.12
54872;BME280;43914;57.680;11.982;2023-05-23T08:18:47;100399.20;;;16.53;49.56
54872;BME280;43914;57.680;11.982;2023-05-23T08:21:12;100397.80;;;16.49;48.95
54872;BME280;43914;57.680;11.982;2023-05-23T08:23:38;100402.84;;;16.48;49.21
54872;BME280;43914;57.680;11.982;2023-05-23T08:26:03;100394.39;;;16.46;49.61
54872;BME280;43914;57.680;11.982;2023-05-23T08:28:28;100397.08;;;16.45;49.71
54872;BME280;43914;57.680;11.982;2023-05-23T08:30:54;100407.23;;;16.43;49.33
54872;BME280;43914;57.680;11.982;2023-05-23T08:33:21;100405.23;;;16.43;49.52
54872;BME280;43914;57.680;11.982;2023-05-23T08:35:47;100399.20;;;16.48;49.86
54872;BME280;43914;57.680;11.982;2023-05-23T08:38:12;100397.27;;;16.55;50.24
54872;BME280;43914;57.680;11.982;2023-05-23T08:40:38;100398.34;;;16.63;49.02
54872;BME280;43914;57.680;11.982;2023-05-23T08:43:06;100390.26;;;16.72;48.28
54872;BME280;43914;57.680;11.982;2023-05-23T08:45:32;100384.88;;;16.84;47.86
54872;BME280;43914;57.680;11.982;2023-05-23T08:47:59;100376.11;;;16.94;47.46
54872;BME280;43914;57.680;11.982;2023-05-23T08:50:27;100376.96;;;17.03;47.13
54872;BME280;43914;57.680;11.982;2023-05-23T08:52:58;100384.05;;;17.10;46.29
54872;BME280;43914;57.680;11.982;2023-05-23T08:55:26;100389.62;;;17.14;45.73
54872;BME280;43914;57.680;11.982;2023-05-23T08:58:01;100391.15;;;17.17;45.62
54872;BME280;43914;57.680;11.982;2023-05-23T09:00:28;100387.37;;;17.23;45.67
54872;BME280;43914;57.680;11.982;2023-05-23T09:02:54;100385.13;;;17.27;45.85
54872;BME280;43914;57.680;11.982;2023-05-23T09:05:21;100385.63;;;17.33;46.31
54872;BME280;43914;57.680;11.982;2023-05-23T09:07:47;100381.21;;;17.39;45.50
54872;BME280;43914;57.680;11.982;2023-05-23T09:10:14;100376.60;;;17.45;45.22
54872;BME280;43914;57.680;11.982;2023-05-23T09:12:44;100380.10;;;17.53;45.11
54872;BME280;43914;57.680;11.982;2023-05-23T09:15:11;100375.95;;;17.58;44.52
54872;BME280;43914;57.680;11.982;2023-05-23T09:17:36;100376.95;;;17.59;44.69
54872;BME280;43914;57.680;11.982;2023-05-23T09:20:03;100375.92;;;17.70;44.70
54872;BME280;43914;57.680;11.982;2023-05-23T09:22:32;100379.08;;;17.81;44.58
54872;BME280;43914;57.680;11.982;2023-05-23T09:24:57;100373.98;;;17.91;44.35
54872;BME280;43914;57.680;11.982;2023-05-23T09:27:23;100374.98;;;18.03;44.37
54872;BME280;43914;57.680;11.982;2023-05-23T09:29:49;100374.91;;;18.13;44.19
54872;BME280;43914;57.680;11.982;2023-05-23T09:32:19;100377.77;;;18.21;43.87
54872;BME280;43914;57.680;11.982;2023-05-23T09:34:59;100373.97;;;18.24;43.92
54872;BME280;43914;57.680;11.982;2023-05-23T09:39:54;100372.45;;;18.36;43.58
54872;BME280;43914;57.680;11.982;2023-05-23T09:42:21;100374.57;;;18.40;43.28
54872;BME280;43914;57.680;11.982;2023-05-23T09:44:47;100374.54;;;18.41;43.59
54872;BME280;43914;57.680;11.982;2023-05-23T09:47:14;100378.39;;;18.38;44.00
54872;BME280;43914;57.680;11.982;2023-05-23T09:49:45;100377.36;;;18.35;44.37
54872;BME280;43914;57.680;11.982;2023-05-23T09:52:12;100384.64;;;18.34;44.36
54872;BME280;43914;57.680;11.982;2023-05-23T09:54:38;100381.17;;;18.32;44.59
54872;BME280;43914;57.680;11.982;2023-05-23T09:57:09;100381.75;;;18.30;44.22
54872;BME280;43914;57.680;11.982;2023-05-23T09:59:40;100383.49;;;18.21;43.98
54872;BME280;43914;57.680;11.982;2023-05-23T10:02:10;100387.44;;;18.17;44.26
54872;BME280;43914;57.680;11.982;2023-05-23T10:04:38;100390.73;;;18.18;44.51
54872;BME280;43914;57.680;11.982;2023-05-23T10:09:38;100389.48;;;18.06;44.49
54872;BME280;43914;57.680;11.982;2023-05-23T10:15:01;100379.63;;;18.01;45.04
54872;BME280;43914;57.680;11.982;2023-05-23T10:20:24;100380.66;;;17.85;45.96
54872;BME280;43914;57.680;11.982;2023-05-23T10:22:50;100385.77;;;17.76;46.55
54872;BME280;43914;57.680;11.982;2023-05-23T10:25:17;100390.41;;;17.63;47.14
54872;BME280;43914;57.680;11.982;2023-05-23T10:27:43;100389.59;;;17.50;47.64
54872;BME280;43914;57.680;11.982;2023-05-23T10:30:09;100382.98;;;17.33;48.15
54872;BME280;43914;57.680;11.982;2023-05-23T10:32:37;100384.39;;;17.25;48.36
54872;BME280;43914;57.680;11.982;2023-05-23T10:40:41;100408.18;;;16.89;50.87
54872;BME280;43914;57.680;11.982;2023-05-23T10:43:26;100411.54;;;16.73;51.51
54872;BME280;43914;57.680;11.982;2023-05-23T10:45:53;100419.70;;;16.52;53.06
54872;BME280;43914;57.680;11.982;2023-05-23T10:51:09;100422.34;;;16.24;57.12
54872;BME280;43914;57.680;11.982;2023-05-23T10:53:40;100421.18;;;16.13;57.26
54872;BME280;43914;57.680;11.982;2023-05-23T10:56:07;100413.49;;;16.05;57.72
54872;BME280;43914;57.680;11.982;2023-05-23T10:58:34;100406.43;;;15.96;59.14
54872;BME280;43914;57.680;11.982;2023-05-23T11:01:07;100400.75;;;15.84;60.91
54872;BME280;43914;57.680;11.982;2023-05-23T11:03:48;100398.35;;;15.73;62.83
54872;BME280;43914;57.680;11.982;2023-05-23T11:06:36;100395.59;;;15.60;65.27
54872;BME280;43914;57.680;11.982;2023-05-23T11:14:31;100386.86;;;15.18;68.66
54872;BME280;43914;57.680;11.982;2023-05-23T11:19:40;100397.41;;;15.05;71.46
54872;BME280;43914;57.680;11.982;2023-05-23T11:22:20;100404.13;;;14.99;72.00
54872;BME280;43914;57.680;11.982;2023-05-23T11:24:50;100407.11;;;14.96;75.95
54872;BME280;43914;57.680;11.982;2023-05-23T11:27:25;100408.50;;;14.95;75.06
54872;BME280;43914;57.680;11.982;2023-05-23T11:30:03;100402.84;;;14.93;76.79
54872;BME280;43914;57.680;11.982;2023-05-23T11:32:31;100398.00;;;14.91;77.26
54872;BME280;43914;57.680;11.982;2023-05-23T11:35:01;100398.60;;;14.93;77.47
54872;BME280;43914;57.680;11.982;2023-05-23T11:37:28;100399.41;;;14.95;79.28
54872;BME280;43914;57.680;11.982;2023-05-23T11:39:54;100403.45;;;14.96;80.70
54872;BME280;43914;57.680;11.982;2023-05-23T11:42:19;100408.27;;;15.00;81.03
54872;BME280;43914;57.680;11.982;2023-05-23T11:44:48;100410.48;;;15.05;82.00
54872;BME280;43914;57.680;11.982;2023-05-23T11:47:14;100407.80;;;15.07;82.86
54872;BME280;43914;57.680;11.982;2023-05-23T11:49:39;100416.48;;;15.12;83.90
54872;BME280;43914;57.680;11.982;2023-05-23T11:52:06;100423.42;;;15.17;84.96
54872;BME280;43914;57.680;11.982;2023-05-23T11:54:32;100426.36;;;15.18;85.62
54872;BME280;43914;57.680;11.982;2023-05-23T11:56:57;100427.98;;;15.15;85.74
54872;BME280;43914;57.680;11.982;2023-05-23T11:59:25;100426.23;;;15.07;86.35
54872;BME280;43914;57.680;11.982;2023-05-23T12:01:53;100427.72;;;15.00;86.73
54872;BME280;43914;57.680;11.982;2023-05-23T12:04:19;100425.14;;;14.91;87.20
54872;BME280;43914;57.680;11.982;2023-05-23T12:06:48;100425.60;;;14.85;87.32
54872;BME280;43914;57.680;11.982;2023-05-23T12:09:15;100427.13;;;14.75;87.51
54872;BME280;43914;57.680;11.982;2023-05-23T12:11:41;100431.05;;;14.65;88.02
54872;BME280;43914;57.680;11.982;2023-05-23T12:14:08;100430.20;;;14.56;88.57
54872;BME280;43914;57.680;11.982;2023-05-23T12:16:35;100425.23;;;14.50;88.92
54872;BME280;43914;57.680;11.982;2023-05-23T12:19:01;100426.81;;;14.46;89.38
54872;BME280;43914;57.680;11.982;2023-05-23T12:22:04;100428.08;;;14.43;90.19
54872;BME280;43914;57.680;11.982;2023-05-23T12:24:31;100425.02;;;14.46;91.27
54872;BME280;43914;57.680;11.982;2023-05-23T12:26:59;100424.29;;;14.49;92.10
54872;BME280;43914;57.680;11.982;2023-05-23T12:29:34;100428.67;;;14.54;92.53
54872;BME280;43914;57.680;11.982;2023-05-23T12:32:03;100429.77;;;14.58;92.29
54872;BME280;43914;57.680;11.982;2023-05-23T12:34:29;100428.66;;;14.60;92.49
54872;BME280;43914;57.680;11.982;2023-05-23T12:36:59;100424.66;;;14.63;93.12
54872;BME280;43914;57.680;11.982;2023-05-23T12:39:27;100423.27;;;14.64;93.50
54872;BME280;43914;57.680;11.982;2023-05-23T12:41:53;100421.28;;;14.63;93.43
54872;BME280;43914;57.680;11.982;2023-05-23T12:44:23;100420.84;;;14.61;92.84
54872;BME280;43914;57.680;11.982;2023-05-23T12:46:54;100420.21;;;14.61;93.21
54872;BME280;43914;57.680;11.982;2023-05-23T12:49:20;100416.58;;;14.66;93.77
54872;BME280;43914;57.680;11.982;2023-05-23T12:51:46;100413.08;;;14.73;94.24
54872;BME280;43914;57.680;11.982;2023-05-23T12:54:11;100408.98;;;14.79;93.66
54872;BME280;43914;57.680;11.982;2023-05-23T12:56:37;100405.48;;;14.80;94.11
54872;BME280;43914;57.680;11.982;2023-05-23T12:59:02;100401.81;;;14.82;93.47
54872;BME280;43914;57.680;11.982;2023-05-23T13:01:29;100405.17;;;14.79;90.76
54872;BME280;43914;57.680;11.982;2023-05-23T13:03:54;100404.72;;;14.77;90.04
54872;BME280;43914;57.680;11.982;2023-05-23T13:06:20;100406.52;;;14.81;89.75
54872;BME280;43914;57.680;11.982;2023-05-23T13:08:45;100402.02;;;14.77;90.06
54872;BME280;43914;57.680;11.982;2023-05-23T13:11:13;100403.75;;;14.75;88.88
54872;BME280;43914;57.680;11.982;2023-05-23T13:13:38;100404.02;;;14.73;88.38
54872;BME280;43914;57.680;11.982;2023-05-23T13:16:04;100407.37;;;14.75;88.25